ZAPA24 FAGM-FAVB

Flight info

Callsign ZAPA24
Flight time 1h 43m
Altitude 9500
Route DCT
Aircraft PA24/L-SDGRY/S

Departure

Time 2026-05-04 07:54
Airport Rand Airport (FAGM)

Arrival

Time 2026-05-04 09:38
Airport Vryburg Airport (FAVB)
Time Latitude Longitude Altitude Speed Heading
2026-05-04 07:25 -26.23574 28.15159 5486 ft 0 kts 125°
2026-05-04 07:27 -26.23569 28.15152 5486 ft 2 kts 125°
2026-05-04 07:28 -26.23559 28.15135 5486 ft 3 kts 125°
2026-05-04 07:28 -26.23550 28.15120 5486 ft 0 kts 125°
2026-05-04 07:33 -26.23550 28.15121 5486 ft 0 kts 125°
2026-05-04 07:38 -26.23551 28.15122 5486 ft 0 kts 125°
2026-05-04 07:42 -26.23555 28.15126 5486 ft 2 kts 146°
2026-05-04 07:42 -26.23568 28.15116 5486 ft 3 kts 275°
2026-05-04 07:43 -26.23567 28.15102 5486 ft 2 kts 262°
2026-05-04 07:43 -26.23579 28.15087 5486 ft 4 kts 210°
2026-05-04 07:43 -26.23612 28.15065 5486 ft 5 kts 210°
2026-05-04 07:43 -26.23641 28.15046 5486 ft 5 kts 210°
2026-05-04 07:44 -26.23660 28.15041 5486 ft 3 kts 168°
2026-05-04 07:44 -26.23674 28.15060 5486 ft 3 kts 127°
2026-05-04 07:44 -26.23704 28.15074 5486 ft 4 kts 168°
2026-05-04 07:44 -26.23745 28.15079 5486 ft 7 kts 175°
2026-05-04 07:45 -26.23804 28.15085 5486 ft 9 kts 175°
2026-05-04 07:45 -26.23842 28.15085 5486 ft 8 kts 181°
2026-05-04 07:45 -26.23891 28.15083 5486 ft 6 kts 181°
2026-05-04 07:45 -26.23932 28.15082 5486 ft 6 kts 181°
2026-05-04 07:46 -26.23979 28.15081 5486 ft 8 kts 181°
2026-05-04 07:46 -26.24035 28.15094 5486 ft 9 kts 158°
2026-05-04 07:46 -26.24095 28.15122 5486 ft 10 kts 158°
2026-05-04 07:46 -26.24161 28.15152 5486 ft 10 kts 158°
2026-05-04 07:47 -26.24228 28.15184 5486 ft 11 kts 156°
2026-05-04 07:47 -26.24300 28.15218 5486 ft 12 kts 156°
2026-05-04 07:47 -26.24379 28.15256 5486 ft 12 kts 157°
2026-05-04 07:49 -26.24749 28.15397 5486 ft 0 kts 224°
2026-05-04 07:50 -26.24754 28.15391 5486 ft 0 kts 229°
2026-05-04 07:50 -26.24755 28.15391 5486 ft 1 kts 230°
2026-05-04 07:50 -26.24757 28.15387 5486 ft 0 kts 235°
2026-05-04 07:50 -26.24759 28.15384 5486 ft 3 kts 239°
2026-05-04 07:51 -26.24755 28.15349 5486 ft 0 kts 334°
2026-05-04 07:51 -26.24754 28.15349 5486 ft 0 kts 334°
2026-05-04 07:51 -26.24710 28.15327 5486 ft 21 kts 337°
2026-05-04 07:52 -26.24452 28.15207 5487 ft 59 kts 338°
2026-05-04 07:52 -26.23976 28.14985 5500 ft 87 kts 335°
2026-05-04 07:52 -26.23392 28.14699 5617 ft 97 kts 336°
2026-05-04 07:52 -26.22764 28.14387 5813 ft 100 kts 335°
2026-05-04 07:53 -26.22132 28.14056 6021 ft 101 kts 332°
2026-05-04 07:54 -26.23618 28.09832 6724 ft 119 kts 219°
2026-05-04 07:55 -26.24224 28.09218 6806 ft 116 kts 229°
2026-05-04 07:55 -26.24665 28.08472 6856 ft 117 kts 241°
2026-05-04 07:55 -26.25149 28.07720 6833 ft 123 kts 235°
2026-05-04 07:55 -26.25627 28.06916 6791 ft 123 kts 236°
2026-05-04 07:56 -26.26098 28.06135 6751 ft 116 kts 236°
2026-05-04 07:56 -26.26529 28.05425 6808 ft 111 kts 236°
2026-05-04 07:56 -26.26963 28.04712 6869 ft 111 kts 236°
2026-05-04 07:56 -26.27411 28.03979 6862 ft 118 kts 236°
2026-05-04 07:57 -26.27805 28.03158 6835 ft 123 kts 249°
2026-05-04 07:57 -26.28057 28.02247 6857 ft 123 kts 255°
2026-05-04 07:57 -26.28282 28.01304 6863 ft 125 kts 253°
2026-05-04 07:57 -26.28521 28.00376 6876 ft 126 kts 255°
2026-05-04 07:58 -26.28755 27.99423 6862 ft 129 kts 255°
2026-05-04 07:58 -26.28992 27.98461 6861 ft 129 kts 255°
2026-05-04 07:58 -26.29232 27.97491 6854 ft 130 kts 255°
2026-05-04 07:58 -26.29468 27.96530 6925 ft 125 kts 255°
2026-05-04 07:59 -26.29697 27.95608 6955 ft 126 kts 255°
2026-05-04 07:59 -26.29936 27.94651 6949 ft 129 kts 254°
2026-05-04 07:59 -26.30173 27.93706 7040 ft 125 kts 254°
2026-05-04 07:59 -26.30408 27.92774 7069 ft 127 kts 254°
2026-05-04 08:00 -26.30648 27.91823 7109 ft 127 kts 254°
2026-05-04 08:00 -26.30886 27.90884 7174 ft 126 kts 254°
2026-05-04 08:00 -26.31125 27.89941 7207 ft 127 kts 254°
2026-05-04 08:02 -26.32822 27.83305 7513 ft 127 kts 254°
2026-05-04 08:02 -26.33067 27.82357 7552 ft 128 kts 254°
2026-05-04 08:02 -26.33313 27.81408 7592 ft 128 kts 254°
2026-05-04 08:03 -26.33559 27.80460 7629 ft 128 kts 254°
2026-05-04 08:03 -26.33806 27.79510 7667 ft 128 kts 254°
2026-05-04 08:03 -26.34053 27.78561 7705 ft 128 kts 254°
2026-05-04 08:03 -26.34302 27.77611 7741 ft 128 kts 253°
2026-05-04 08:04 -26.34554 27.76649 7777 ft 128 kts 253°
2026-05-04 08:04 -26.34804 27.75698 7813 ft 128 kts 253°
2026-05-04 08:04 -26.35054 27.74746 7847 ft 128 kts 253°
2026-05-04 08:04 -26.35306 27.73794 7884 ft 128 kts 253°
2026-05-04 08:05 -26.35558 27.72845 7931 ft 128 kts 253°
2026-05-04 08:05 -26.35810 27.71892 7970 ft 128 kts 253°
2026-05-04 08:05 -26.36063 27.70941 8009 ft 128 kts 253°
2026-05-04 08:05 -26.36317 27.69988 8051 ft 128 kts 253°
2026-05-04 08:06 -26.36571 27.69037 8087 ft 129 kts 253°
2026-05-04 08:06 -26.36827 27.68082 8125 ft 129 kts 253°
2026-05-04 08:06 -26.37083 27.67128 8163 ft 129 kts 253°
2026-05-04 08:06 -26.37339 27.66175 8198 ft 129 kts 253°
2026-05-04 08:08 -26.39160 27.59474 8513 ft 129 kts 253°
2026-05-04 08:08 -26.39423 27.58516 8554 ft 129 kts 253°
2026-05-04 08:10 -26.41529 27.50824 8857 ft 130 kts 256°
2026-05-04 08:11 -26.41752 27.49847 8892 ft 130 kts 255°
2026-05-04 08:11 -26.42205 27.47895 8959 ft 130 kts 255°
2026-05-04 08:11 -26.42432 27.46919 8978 ft 131 kts 255°
2026-05-04 08:12 -26.42664 27.45927 8981 ft 133 kts 255°
2026-05-04 08:12 -26.42899 27.44925 8984 ft 134 kts 255°
2026-05-04 08:12 -26.43135 27.43915 8985 ft 135 kts 255°
2026-05-04 08:12 -26.43375 27.42902 8984 ft 136 kts 255°
2026-05-04 08:13 -26.43614 27.41883 8982 ft 136 kts 255°
2026-05-04 08:13 -26.43854 27.40864 8985 ft 136 kts 255°
2026-05-04 08:13 -26.44096 27.39843 8984 ft 136 kts 255°
2026-05-04 08:13 -26.44338 27.38822 8985 ft 136 kts 255°
2026-05-04 08:14 -26.44579 27.37785 8984 ft 136 kts 256°
2026-05-04 08:14 -26.44816 27.36760 8983 ft 137 kts 255°
2026-05-04 08:14 -26.45052 27.35738 8985 ft 136 kts 255°
2026-05-04 08:16 -26.46729 27.28573 8985 ft 137 kts 255°
2026-05-04 08:16 -26.46972 27.27549 8985 ft 137 kts 255°
2026-05-04 08:16 -26.47215 27.26524 8983 ft 137 kts 255°
2026-05-04 08:17 -26.47461 27.25489 8984 ft 137 kts 255°
2026-05-04 08:17 -26.47705 27.24465 8984 ft 137 kts 255°
2026-05-04 08:17 -26.47949 27.23443 8985 ft 137 kts 255°
2026-05-04 08:17 -26.48194 27.22422 8984 ft 137 kts 255°
2026-05-04 08:19 -26.49926 27.15270 8984 ft 137 kts 255°
2026-05-04 08:19 -26.50167 27.14245 8984 ft 137 kts 256°
2026-05-04 08:20 -26.50403 27.13220 8986 ft 137 kts 255°
2026-05-04 08:20 -26.50643 27.12181 8985 ft 137 kts 255°
2026-05-04 08:20 -26.50881 27.11156 8984 ft 137 kts 255°
2026-05-04 08:20 -26.51120 27.10131 8985 ft 137 kts 255°
2026-05-04 08:21 -26.51359 27.09106 8985 ft 137 kts 255°
2026-05-04 08:21 -26.51599 27.08081 8984 ft 137 kts 255°
2026-05-04 08:21 -26.51839 27.07057 8985 ft 137 kts 255°
2026-05-04 08:21 -26.52080 27.06033 8985 ft 137 kts 255°
2026-05-04 08:22 -26.52321 27.05008 8984 ft 137 kts 255°
2026-05-04 08:22 -26.52563 27.03984 8985 ft 137 kts 255°
2026-05-04 08:24 -26.54278 26.96805 8984 ft 137 kts 255°
2026-05-04 08:24 -26.54525 26.95782 8985 ft 137 kts 255°
2026-05-04 08:24 -26.54772 26.94759 8985 ft 137 kts 255°
2026-05-04 08:24 -26.55021 26.93736 8984 ft 137 kts 255°
2026-05-04 08:25 -26.55269 26.92715 8986 ft 137 kts 255°
2026-05-04 08:25 -26.55519 26.91692 8985 ft 137 kts 255°
2026-05-04 08:25 -26.55762 26.90667 8984 ft 137 kts 256°
2026-05-04 08:25 -26.55998 26.89641 8986 ft 137 kts 255°
2026-05-04 08:26 -26.56236 26.88615 8984 ft 137 kts 255°
2026-05-04 08:27 -26.57916 26.81424 8985 ft 137 kts 255°
2026-05-04 08:28 -26.58158 26.80398 8985 ft 137 kts 255°
2026-05-04 08:28 -26.58401 26.79374 8985 ft 137 kts 255°
2026-05-04 08:28 -26.58644 26.78350 8985 ft 137 kts 255°
2026-05-04 08:28 -26.58888 26.77325 8986 ft 137 kts 255°
2026-05-04 08:29 -26.59132 26.76300 8984 ft 137 kts 255°
2026-05-04 08:29 -26.59377 26.75276 8985 ft 137 kts 255°
2026-05-04 08:29 -26.59623 26.74252 8985 ft 137 kts 255°
2026-05-04 08:31 -26.61296 26.67054 8985 ft 137 kts 255°
2026-05-04 08:33 -26.62992 26.59877 8984 ft 137 kts 255°
2026-05-04 08:33 -26.63240 26.58838 8985 ft 137 kts 255°
2026-05-04 08:35 -26.64934 26.51657 8985 ft 137 kts 255°
2026-05-04 08:35 -26.65172 26.50631 8986 ft 137 kts 255°
2026-05-04 08:35 -26.65411 26.49603 8985 ft 137 kts 255°
2026-05-04 08:35 -26.65651 26.48577 8986 ft 137 kts 255°
2026-05-04 08:37 -26.67024 26.42754 8985 ft 137 kts 255°
2026-05-04 08:37 -26.67351 26.41381 8986 ft 137 kts 255°
2026-05-04 08:37 -26.67595 26.40357 8985 ft 137 kts 255°
2026-05-04 08:38 -26.67758 26.39677 8986 ft 137 kts 255°
2026-05-04 08:38 -26.68003 26.38653 8985 ft 137 kts 255°
2026-05-04 08:38 -26.68250 26.37626 8985 ft 137 kts 255°
2026-05-04 08:40 -26.69995 26.30447 8984 ft 137 kts 252°
2026-05-04 08:40 -26.70279 26.29435 8987 ft 137 kts 252°
2026-05-04 08:40 -26.70565 26.28423 8984 ft 137 kts 252°
2026-05-04 08:41 -26.70851 26.27411 8985 ft 137 kts 252°
2026-05-04 08:41 -26.71138 26.26400 8985 ft 137 kts 252°
2026-05-04 08:41 -26.71425 26.25388 8985 ft 137 kts 252°
2026-05-04 08:41 -26.71712 26.24378 8985 ft 137 kts 252°
2026-05-04 08:42 -26.72001 26.23366 8985 ft 137 kts 252°
2026-05-04 08:42 -26.72293 26.22342 8986 ft 137 kts 252°
2026-05-04 08:42 -26.72583 26.21333 8986 ft 137 kts 252°
2026-05-04 08:42 -26.72874 26.20321 8985 ft 137 kts 252°
2026-05-04 08:43 -26.73165 26.19312 8985 ft 137 kts 252°
2026-05-04 08:43 -26.73457 26.18302 8985 ft 137 kts 252°
2026-05-04 08:43 -26.73749 26.17293 8986 ft 137 kts 252°
2026-05-04 08:43 -26.74041 26.16282 8985 ft 137 kts 252°
2026-05-04 08:44 -26.74334 26.15274 8985 ft 137 kts 252°
2026-05-04 08:44 -26.74628 26.14263 8986 ft 137 kts 252°
2026-05-04 08:46 -26.76706 26.07193 8985 ft 137 kts 252°
2026-05-04 08:46 -26.77005 26.06184 8986 ft 137 kts 252°
2026-05-04 08:46 -26.77303 26.05177 8985 ft 137 kts 251°
2026-05-04 08:46 -26.77603 26.04169 8985 ft 137 kts 251°
2026-05-04 08:47 -26.77904 26.03162 8986 ft 137 kts 251°
2026-05-04 08:47 -26.78205 26.02155 8986 ft 137 kts 251°
2026-05-04 08:47 -26.78507 26.01149 8986 ft 137 kts 251°
2026-05-04 08:47 -26.78810 26.00141 8986 ft 137 kts 251°
2026-05-04 08:48 -26.79112 25.99136 8985 ft 137 kts 251°
2026-05-04 08:48 -26.79416 25.98129 8985 ft 137 kts 251°
2026-05-04 08:48 -26.79723 25.97110 8987 ft 137 kts 251°
2026-05-04 08:48 -26.80028 25.96103 8985 ft 137 kts 251°
2026-05-04 08:49 -26.80333 25.95097 8985 ft 137 kts 251°
2026-05-04 08:50 -26.82142 25.89054 8984 ft 137 kts 252°
2026-05-04 08:50 -26.82428 25.88041 8986 ft 137 kts 252°
2026-05-04 08:51 -26.82714 25.87029 8985 ft 137 kts 252°
2026-05-04 08:51 -26.83002 25.86015 8986 ft 137 kts 252°
2026-05-04 08:51 -26.83290 25.85003 8986 ft 137 kts 252°
2026-05-04 08:51 -26.83582 25.83977 8985 ft 137 kts 252°
2026-05-04 08:52 -26.83872 25.82965 8985 ft 137 kts 252°
2026-05-04 08:52 -26.84159 25.81953 8986 ft 137 kts 252°
2026-05-04 08:52 -26.84444 25.80940 8986 ft 137 kts 252°
2026-05-04 08:52 -26.84730 25.79926 8985 ft 137 kts 252°
2026-05-04 08:53 -26.85017 25.78914 8986 ft 137 kts 252°
2026-05-04 08:54 -26.87042 25.71827 8986 ft 137 kts 252°
2026-05-04 08:55 -26.87338 25.70802 8986 ft 137 kts 252°
2026-05-04 08:55 -26.87630 25.69790 8986 ft 137 kts 252°
2026-05-04 08:55 -26.87923 25.68779 8986 ft 137 kts 252°
2026-05-04 08:55 -26.88217 25.67768 8985 ft 137 kts 252°
2026-05-04 08:57 -26.90226 25.60676 8985 ft 137 kts 257°
2026-05-04 09:01 -26.93394 25.46199 8986 ft 137 kts 256°
2026-05-04 09:01 -26.93625 25.45167 8985 ft 137 kts 256°
2026-05-04 09:01 -26.93861 25.44122 8986 ft 137 kts 256°
2026-05-04 09:01 -26.94094 25.43091 8986 ft 137 kts 256°
2026-05-04 09:02 -26.94326 25.42058 8986 ft 137 kts 256°
2026-05-04 09:02 -26.94559 25.41027 8987 ft 137 kts 256°
2026-05-04 09:02 -26.94792 25.39996 8985 ft 137 kts 256°
2026-05-04 09:02 -26.95026 25.38965 8986 ft 137 kts 256°
2026-05-04 09:03 -26.95262 25.37932 8986 ft 137 kts 256°
2026-05-04 09:03 -26.95497 25.36903 8986 ft 137 kts 256°
2026-05-04 09:03 -26.95733 25.35872 8986 ft 137 kts 255°
2026-05-04 09:03 -26.95972 25.34840 8986 ft 137 kts 255°
2026-05-04 09:04 -26.96210 25.33811 8986 ft 137 kts 255°
2026-05-04 09:04 -26.96448 25.32780 8986 ft 137 kts 255°
2026-05-04 09:04 -26.96686 25.31751 8987 ft 137 kts 255°
2026-05-04 09:04 -26.96928 25.30708 8987 ft 137 kts 255°
2026-05-04 09:05 -26.97168 25.29676 8985 ft 137 kts 255°
2026-05-04 09:05 -26.97409 25.28647 8986 ft 137 kts 255°
2026-05-04 09:05 -26.97649 25.27618 8987 ft 137 kts 255°
2026-05-04 09:05 -26.97882 25.26585 8986 ft 137 kts 256°
2026-05-04 09:06 -26.98096 25.25547 8986 ft 137 kts 257°
2026-05-04 09:07 -26.99487 25.18607 8397 ft 126 kts 257°
2026-05-04 09:08 -26.99681 25.17656 8207 ft 125 kts 257°
2026-05-04 09:08 -26.99877 25.16691 8010 ft 126 kts 257°
2026-05-04 09:08 -27.00071 25.15742 7832 ft 125 kts 257°
2026-05-04 09:08 -27.00265 25.14797 7648 ft 124 kts 257°
2026-05-04 09:09 -27.00457 25.13855 7469 ft 124 kts 257°
2026-05-04 09:09 -27.00643 25.12915 7295 ft 124 kts 257°
2026-05-04 09:09 -27.00830 25.11976 7122 ft 123 kts 257°
2026-05-04 09:09 -27.01017 25.11043 6951 ft 123 kts 257°
2026-05-04 09:10 -27.01202 25.10109 6784 ft 123 kts 257°
2026-05-04 09:10 -27.01388 25.09179 6620 ft 122 kts 257°
2026-05-04 09:10 -27.01573 25.08253 6456 ft 122 kts 257°
2026-05-04 09:10 -27.01759 25.07329 6297 ft 121 kts 257°
2026-05-04 09:11 -27.01944 25.06409 6140 ft 121 kts 257°
2026-05-04 09:11 -27.02132 25.05476 5980 ft 121 kts 257°
2026-05-04 09:11 -27.02318 25.04560 5830 ft 120 kts 257°
2026-05-04 09:11 -27.02503 25.03647 5678 ft 120 kts 257°
2026-05-04 09:12 -27.02689 25.02736 5528 ft 120 kts 257°
2026-05-04 09:12 -27.02874 25.01832 5463 ft 117 kts 257°
2026-05-04 09:14 -27.04144 24.95684 5254 ft 116 kts 257°
2026-05-04 09:14 -27.04325 24.94819 5157 ft 113 kts 257°
2026-05-04 09:14 -27.04505 24.93961 5047 ft 113 kts 257°
2026-05-04 09:14 -27.04688 24.93097 4953 ft 112 kts 257°
2026-05-04 09:15 -27.04868 24.92243 4849 ft 113 kts 257°
2026-05-04 09:15 -27.05048 24.91393 4739 ft 112 kts 257°
2026-05-04 09:15 -27.05230 24.90541 4637 ft 112 kts 257°
2026-05-04 09:15 -27.05406 24.89713 4634 ft 108 kts 256°
2026-05-04 09:17 -27.06819 24.83162 4671 ft 105 kts 256°
2026-05-04 09:18 -27.06990 24.82360 4663 ft 107 kts 257°
2026-05-04 09:18 -27.07150 24.81554 4693 ft 105 kts 257°
2026-05-04 09:18 -27.07310 24.80750 4695 ft 106 kts 257°
2026-05-04 09:18 -27.07472 24.79943 4715 ft 106 kts 257°
2026-05-04 09:19 -27.07633 24.79141 4724 ft 106 kts 257°
2026-05-04 09:19 -27.07795 24.78334 4736 ft 106 kts 257°
2026-05-04 09:19 -27.07958 24.77531 4752 ft 106 kts 257°
2026-05-04 09:19 -27.08116 24.76724 4759 ft 106 kts 261°
2026-05-04 09:20 -27.07978 24.75919 4748 ft 108 kts 301°
2026-05-04 09:20 -27.07386 24.75396 4693 ft 112 kts 341°
2026-05-04 09:20 -27.06634 24.75269 4733 ft 108 kts 357°
2026-05-04 09:20 -27.05879 24.75289 4711 ft 110 kts
2026-05-04 09:21 -27.05112 24.75346 4695 ft 107 kts
2026-05-04 09:21 -27.04364 24.75400 4606 ft 109 kts
2026-05-04 09:21 -27.03605 24.75389 4527 ft 109 kts 357°
2026-05-04 09:21 -27.02839 24.75347 4432 ft 111 kts 357°
2026-05-04 09:22 -27.02088 24.75292 4397 ft 107 kts 356°
2026-05-04 09:22 -27.01362 24.75159 4336 ft 107 kts 338°
2026-05-04 09:22 -27.00739 24.74766 4392 ft 97 kts 327°
2026-05-04 09:22 -27.00189 24.74348 4484 ft 94 kts 326°
2026-05-04 09:23 -26.99644 24.73933 4563 ft 96 kts 325°
2026-05-04 09:23 -26.99019 24.73575 4504 ft 108 kts 341°
2026-05-04 09:23 -26.98264 24.73328 4323 ft 114 kts 342°
2026-05-04 09:23 -26.97527 24.73046 4405 ft 111 kts 341°
2026-05-04 09:25 -26.96178 24.68484 4729 ft 113 kts 224°
2026-05-04 09:25 -26.96888 24.68126 4746 ft 115 kts 185°
2026-05-04 09:26 -26.97688 24.68273 4730 ft 118 kts 163°
2026-05-04 09:26 -26.98463 24.68571 4756 ft 118 kts 161°
2026-05-04 09:26 -26.99239 24.68860 4772 ft 118 kts 161°
2026-05-04 09:26 -27.00010 24.69176 4794 ft 118 kts 159°
2026-05-04 09:27 -27.00772 24.69508 4807 ft 117 kts 159°
2026-05-04 09:27 -27.01537 24.69838 4752 ft 120 kts 156°
2026-05-04 09:27 -27.02166 24.70465 4676 ft 121 kts 118°
2026-05-04 09:27 -27.02281 24.71305 4708 ft 106 kts 82°
2026-05-04 09:28 -27.02109 24.72121 4706 ft 108 kts 73°
2026-05-04 09:28 -27.01889 24.72933 4707 ft 109 kts 71°
2026-05-04 09:28 -27.01435 24.73613 4675 ft 113 kts 34°
2026-05-04 09:28 -27.00677 24.73851 4515 ft 118 kts 357°
2026-05-04 09:29 -26.99870 24.73706 4377 ft 118 kts 358°
2026-05-04 09:29 -26.99093 24.73631 4123 ft 110 kts 342°
2026-05-04 09:29 -26.98410 24.73379 3953 ft 97 kts 342°
2026-05-04 09:29 -26.97798 24.73158 4074 ft 95 kts 340°
2026-05-04 09:30 -26.97166 24.72860 4232 ft 105 kts 336°
2026-05-04 09:30 -26.96483 24.72518 4410 ft 109 kts 337°
2026-05-04 09:30 -26.95806 24.72238 4654 ft 103 kts 341°
2026-05-04 09:30 -26.95090 24.71948 4745 ft 111 kts 334°
2026-05-04 09:31 -26.94538 24.71326 4710 ft 120 kts 295°
2026-05-04 09:31 -26.94463 24.70404 4651 ft 116 kts 260°
2026-05-04 09:31 -26.94657 24.69551 4621 ft 113 kts 253°
2026-05-04 09:31 -26.94878 24.68723 4599 ft 111 kts 253°
2026-05-04 09:32 -26.95140 24.67901 4587 ft 113 kts 239°
2026-05-04 09:32 -26.95750 24.67360 4547 ft 115 kts 198°
2026-05-04 09:34 -27.00857 24.69011 4686 ft 111 kts 162°
2026-05-04 09:34 -27.01348 24.69190 4704 ft 110 kts 162°
2026-05-04 09:34 -27.02077 24.69471 4706 ft 112 kts 160°
2026-05-04 09:34 -27.02802 24.69772 4730 ft 111 kts 159°
2026-05-04 09:35 -27.03437 24.70261 4675 ft 115 kts 127°
2026-05-04 09:35 -27.03666 24.71105 4540 ft 118 kts 88°
2026-05-04 09:35 -27.03467 24.71957 4551 ft 108 kts 65°
2026-05-04 09:35 -27.02975 24.72587 4391 ft 116 kts 25°
2026-05-04 09:37 -26.98447 24.73393 3945 ft 89 kts 342°
2026-05-04 09:37 -26.97919 24.73210 3924 ft 69 kts 342°
2026-05-04 09:38 -26.97684 24.73127 3923 ft 11 kts 342°
2026-05-04 09:38 -26.97638 24.73111 3923 ft 4 kts 343°
2026-05-04 09:38 -26.97606 24.73100 3923 ft 5 kts 343°
2026-05-04 09:38 -26.97573 24.73089 3923 ft 5 kts 343°
2026-05-04 09:39 -26.97539 24.73077 3923 ft 5 kts 343°
2026-05-04 09:39 -26.97532 24.73055 3923 ft 5 kts 242°
2026-05-04 09:39 -26.97563 24.73001 3924 ft 10 kts 237°
2026-05-04 09:39 -26.97612 24.72945 3923 ft 10 kts 186°
2026-05-04 09:40 -26.97678 24.72969 3924 ft 11 kts 159°
2026-05-04 09:40 -26.97755 24.73002 3923 ft 13 kts 159°
2026-05-04 09:40 -26.97840 24.73038 3923 ft 14 kts 160°
2026-05-04 09:40 -26.97932 24.73075 3923 ft 13 kts 160°
2026-05-04 09:41 -26.97984 24.73078 3923 ft 3 kts 221°
2026-05-04 09:42 -26.97987 24.73074 3923 ft 0 kts 227°